Nearby METAR Reports

 

KTOP - Billard Municipal Airport, Topeka, Kansas, USA
Updated: 08/16/2018 9:53am
Mostly cloudy
Mostly cloudy
 Wind from calm
Wind: Calm
Temperature: 79°F , 26°C
Dew Point: 73°F , 23°C
Humidity: 84%
Barometer: 1015.9 hPa
Clouds: Mostly cloudy
Visibility: 10 miles , 16 km
Cloud details: Mostly cloudy 9000 ft
2018/08/16 14:53 KTOP 161453Z 00000KT 10SM BKN090 26/23 A3000 RMK AO2 SLP151 T02610233 51015
KFOE - Forbes Field Airport, Topeka, Kansas, USA
Updated: 08/16/2018 9:53am
Partly cloudy
Partly cloudy
 Wind from NW
Wind: NW 3 mph , 6 km/h
Temperature: 79°F , 26°C
Dew Point: 73°F , 23°C
Humidity: 84%
Barometer: 1016.6 hPa
Clouds: Partly cloudy
Visibility: 10 miles , 16 km
Cloud details: Partly cloudy 9000 ft
2018/08/16 14:53 KFOE 161453Z 31003KT 10SM SCT090 26/23 A3002 RMK AO2 SLP153 T02610228 51018